Time;durP1;ratioP1;P1;durP2;ratioP2;P2;SDS_P1;SDS_P2;PMS_P1;PMS_P2;Temp;Humidity;BMP_temperature;BMP_pressure;BME280_temperature;BME280_humidity;BME280_pressure;Samples;Min_cycle;Max_cycle;Signal;HPM_P1;HPM_P2
2021/07/20 00:00:22;;;;;;;31.62;21.95;;;;;;;21.76;73.58;100328.02;1906492;74;21020;-66
2021/07/20 00:02:53;;;;;;;30.00;20.90;;;;;;;21.70;73.83;100325.92;1906461;75;21056;-66
2021/07/20 00:05:24;;;;;;;29.40;22.98;;;;;;;21.69;73.79;100329.58;1906360;75;21521;-66
2021/07/20 00:07:56;;;;;;;33.40;22.10;;;;;;;21.68;73.84;100331.42;1906488;75;21004;-65
2021/07/20 00:10:31;;;;;;;30.40;22.50;;;;;;;21.63;73.99;100316.76;1906326;74;21008;-65
2021/07/20 00:13:00;;;;;;;34.05;22.50;;;;;;;21.55;74.02;100331.70;1906489;75;21024;-65
2021/07/20 00:15:29;;;;;;;34.10;23.73;;;;;;;21.50;74.08;100325.91;1906467;75;21008;-65
2021/07/20 00:18:00;;;;;;;30.62;21.33;;;;;;;21.42;74.10;100321.73;1906548;75;21169;-66
2021/07/20 00:20:29;;;;;;;29.67;20.55;;;;;;;21.37;74.04;100319.97;1906583;75;21105;-65
2021/07/20 00:22:58;;;;;;;34.25;23.32;;;;;;;21.32;73.87;100320.40;1906555;75;21490;-66
2021/07/20 00:25:27;;;;;;;28.90;20.88;;;;;;;21.29;73.85;100321.17;1906585;74;21095;-66
2021/07/20 00:27:57;;;;;;;28.98;20.75;;;;;;;21.24;73.76;100315.37;1906528;74;21039;-66
2021/07/20 00:30:25;;;;;;;29.75;20.60;;;;;;;21.24;73.45;100318.05;1906413;75;21494;-66
2021/07/20 00:32:55;;;;;;;29.63;19.92;;;;;;;21.20;73.35;100327.70;1906502;75;20997;-65
2021/07/20 00:35:24;;;;;;;30.45;19.45;;;;;;;21.20;73.14;100330.38;1906485;74;21470;-65
2021/07/20 00:37:52;;;;;;;24.85;19.73;;;;;;;21.18;73.19;100326.98;1906490;75;21427;-65
2021/07/20 00:40:22;;;;;;;26.30;19.35;;;;;;;21.14;73.14;100325.58;1906575;74;21070;-65
2021/07/20 00:42:52;;;;;;;25.57;18.87;;;;;;;21.09;73.20;100316.27;1906006;74;21074;-66
2021/07/20 00:45:21;;;;;;;29.18;20.57;;;;;;;21.06;73.21;100323.23;1906428;75;21028;-65
2021/07/20 00:47:50;;;;;;;31.15;19.42;;;;;;;20.99;73.43;100324.30;1906463;74;21509;-65
2021/07/20 00:50:23;;;;;;;26.12;18.95;;;;;;;20.93;73.58;100330.17;1906473;75;21579;-65
2021/07/20 00:52:52;;;;;;;29.98;21.25;;;;;;;20.89;73.85;100330.94;1906486;74;21036;-65
2021/07/20 00:55:23;;;;;;;30.60;19.37;;;;;;;20.86;73.96;100329.03;1906486;75;21160;-66
2021/07/20 00:57:53;;;;;;;28.50;19.17;;;;;;;20.82;74.08;100330.66;1916704;75;21137;-65
2021/07/20 01:00:24;;;;;;;30.27;20.02;;;;;;;20.78;74.18;100327.88;1896687;75;21137;-65
2021/07/20 01:02:54;;;;;;;35.10;20.77;;;;;;;20.74;74.16;100318.43;1919195;74;21032;-65
2021/07/20 01:05:27;;;;;;;29.20;21.48;;;;;;;20.73;74.19;100319.44;1919050;74;21062;-65
2021/07/20 01:07:58;;;;;;;30.12;20.65;;;;;;;20.72;74.20;100324.91;1919190;74;21534;-66
2021/07/20 01:10:28;;;;;;;27.13;19.80;;;;;;;20.67;74.43;100319.95;1919315;74;21128;-66
2021/07/20 01:13:00;;;;;;;28.10;21.17;;;;;;;20.61;74.61;100315.99;1919264;75;21075;-65
2021/07/20 01:15:30;;;;;;;31.62;18.52;;;;;;;20.60;74.67;100330.80;1919260;75;21023;-65
2021/07/20 01:18:01;;;;;;;27.37;18.25;;;;;;;20.61;74.56;100326.69;1919263;75;21036;-65
2021/07/20 01:20:33;;;;;;;26.82;18.80;;;;;;;20.59;74.46;100325.95;1919188;74;21047;-66
2021/07/20 01:23:17;;;;;;;28.27;17.85;;;;;;;20.55;74.38;100329.05;1919334;75;21055;-66
2021/07/20 01:25:42;;;;;;;26.95;21.00;;;;;;;20.53;74.18;100328.34;1918318;74;21059;-65
2021/07/20 01:28:17;;;;;;;29.63;20.23;;;;;;;20.51;74.11;100328.94;1919258;75;21055;-66
2021/07/20 01:30:46;;;;;;;;;;;;;;;20.50;74.18;100328.59;1921964;73;21004;-66
2021/07/20 01:33:18;;;;;;;34.23;19.77;;;;;;;20.52;74.04;100330.14;1919332;75;20113;-65
2021/07/20 01:35:50;;;;;;;30.88;21.85;;;;;;;20.58;73.84;100335.45;1919289;75;20992;-65
2021/07/20 01:38:21;;;;;;;31.87;21.48;;;;;;;20.61;73.88;100332.55;1919116;75;21160;-65
2021/07/20 01:40:52;;;;;;;31.60;20.57;;;;;;;20.64;73.86;100329.61;1919229;74;21093;-65
2021/07/20 01:43:23;;;;;;;27.77;19.10;;;;;;;20.68;73.64;100328.84;1919123;75;21003;-65
2021/07/20 01:45:56;;;;;;;30.17;19.98;;;;;;;20.69;73.52;100332.70;1919075;74;21047;-65
2021/07/20 01:48:29;;;;;;;32.63;18.87;;;;;;;20.69;73.39;100323.84;1918991;74;21137;-65
2021/07/20 01:51:00;;;;;;;27.73;19.87;;;;;;;20.66;73.36;100322.29;1919258;75;21031;-65
2021/07/20 01:53:30;;;;;;;32.30;19.60;;;;;;;20.60;73.50;100324.12;1919242;75;21031;-65
2021/07/20 01:56:04;;;;;;;33.33;22.17;;;;;;;20.59;73.49;100322.44;1919059;73;21018;-65
2021/07/20 01:58:41;;;;;;;31.57;20.48;;;;;;;20.55;73.76;100318.34;1926702;74;21085;-65
2021/07/20 02:01:28;;;;;;;30.45;21.20;;;;;;;20.49;73.92;100316.19;1928841;74;21092;-65
2021/07/20 02:09:33;;;;;;;35.60;21.45;;;;;;;20.34;74.58;100319.22;1928706;74;21512;-65
2021/07/20 02:12:12;;;;;;;37.25;23.62;;;;;;;20.32;74.74;100325.69;1928717;74;21120;-65
2021/07/20 02:14:43;;;;;;;34.95;26.23;;;;;;;20.27;74.96;100328.78;1908443;74;21050;-65
2021/07/20 02:17:30;;;;;;;41.15;28.05;;;;;;;20.25;75.30;100325.36;1888418;76;21508;-65
2021/07/20 02:20:02;;;;;;;37.23;26.85;;;;;;;20.22;75.52;100325.64;1916201;74;21120;-65
2021/07/20 02:22:37;;;;;;;39.00;25.37;;;;;;;20.25;75.35;100320.02;1927305;74;21079;-65
2021/07/20 02:25:10;;;;;;;39.90;28.07;;;;;;;20.27;75.34;100322.09;1928696;74;21031;-65
2021/07/20 02:27:40;;;;;;;33.67;24.90;;;;;;;20.27;75.41;100322.09;1929073;74;21031;-65
2021/07/20 02:30:13;;;;;;;36.55;25.02;;;;;;;20.31;75.53;100326.19;1927057;74;21599;-65
2021/07/20 02:32:46;;;;;;;38.65;27.62;;;;;;;20.35;75.52;100330.78;1928795;74;21520;-65
2021/07/20 02:35:25;;;;;;;36.67;24.97;;;;;;;20.39;75.81;100329.03;1927917;74;21054;-65
2021/07/20 02:37:57;;;;;;;35.40;24.25;;;;;;;20.51;75.70;100325.80;1928718;74;21484;-65
2021/07/20 02:40:28;;;;;;;33.28;25.02;;;;;;;20.69;75.38;100328.69;1928755;73;21080;-65
2021/07/20 02:43:01;;;;;;;32.28;22.82;;;;;;;20.81;74.96;100328.11;1928942;73;21519;-65
2021/07/20 02:45:33;;;;;;;28.65;22.22;;;;;;;20.89;74.76;100335.45;1929053;74;21059;-65
2021/07/20 02:48:05;;;;;;;31.85;23.92;;;;;;;20.97;74.54;100324.42;1928859;74;21128;-66
2021/07/20 02:50:35;;;;;;;33.53;21.57;;;;;;;21.10;74.26;100324.17;1928816;74;21058;-65
2021/07/20 02:53:16;;;;;;;27.25;19.82;;;;;;;21.18;74.03;100324.31;1928247;74;21078;-65
2021/07/20 02:55:49;;;;;;;29.40;19.65;;;;;;;21.29;73.89;100325.19;1927792;74;21169;-65
2021/07/20 02:58:19;;;;;;;27.82;20.15;;;;;;;21.40;73.55;100329.91;1923408;74;21157;-65
2021/07/20 03:00:48;;;;;;;28.45;20.05;;;;;;;21.52;73.34;100331.13;1919320;73;21176;-64
2021/07/20 03:03:19;;;;;;;29.07;20.10;;;;;;;21.63;72.88;100335.52;1919155;75;21047;-63
2021/07/20 03:05:49;;;;;;;23.35;19.10;;;;;;;21.72;72.50;100330.64;1918609;74;21035;-63
2021/07/20 03:08:21;;;;;;;26.77;19.92;;;;;;;21.81;72.14;100327.11;1919284;75;21482;-63
2021/07/20 03:10:59;;;;;;;32.35;20.37;;;;;;;22.05;71.92;100335.19;1918916;74;21031;-64
2021/07/20 03:13:32;;;;;;;26.52;19.98;;;;;;;22.46;70.84;100326.42;1918718;74;21093;-64
2021/07/20 03:16:04;;;;;;;27.67;20.90;;;;;;;22.55;70.16;100342.98;1917949;74;21063;-64
2021/07/20 03:18:35;;;;;;;30.50;20.75;;;;;;;22.49;69.83;100339.05;1919244;73;21051;-63
2021/07/20 03:21:06;;;;;;;22.73;17.23;;;;;;;22.49;69.88;100335.52;1919246;74;21090;-63
2021/07/20 03:23:36;;;;;;;27.50;20.57;;;;;;;22.56;70.15;100340.66;1919112;75;21050;-64
2021/07/20 03:26:07;;;;;;;29.95;19.02;;;;;;;22.59;69.81;100335.48;1919070;75;21089;-64
2021/07/20 03:28:39;;;;;;;28.17;17.95;;;;;;;22.66;69.76;100338.76;1919179;74;21133;-64
2021/07/20 03:31:09;;;;;;;26.15;18.77;;;;;;;22.74;69.74;100331.30;1896617;75;21105;-64
2021/07/20 03:33:40;;;;;;;24.55;17.40;;;;;;;22.86;69.57;100331.97;1919187;75;21101;-66
2021/07/20 03:36:11;;;;;;;26.42;18.15;;;;;;;22.95;69.61;100325.70;1913430;75;21564;-65
2021/07/20 03:38:41;;;;;;;24.05;17.87;;;;;;;23.06;69.38;100334.91;1919257;75;21486;-65
2021/07/20 03:41:11;;;;;;;24.45;18.75;;;;;;;23.15;68.99;100336.33;1919196;75;21117;-66
2021/07/20 03:43:40;;;;;;;28.83;18.07;;;;;;;23.32;68.92;100343.58;1919324;75;21102;-65
2021/07/20 03:46:10;;;;;;;23.35;18.23;;;;;;;23.48;68.27;100341.06;1919239;74;21471;-66
2021/07/20 03:48:39;;;;;;;24.00;18.32;;;;;;;23.56;67.79;100345.66;1919102;75;21083;-66
2021/07/20 03:51:10;;;;;;;25.92;18.32;;;;;;;23.64;67.77;100348.91;1917303;74;21059;-66
2021/07/20 03:53:41;;;;;;;30.90;17.02;;;;;;;23.78;67.38;100347.03;1919280;74;21439;-65
2021/07/20 03:56:10;;;;;;;21.35;16.80;;;;;;;23.93;67.08;100347.86;1919312;75;21032;-65
2021/07/20 03:58:46;;;;;;;22.73;17.35;;;;;;;24.04;66.77;100343.05;1918411;74;21144;-64
2021/07/20 04:01:17;;;;;;;24.55;17.98;;;;;;;24.10;66.05;100342.92;1919353;75;21129;-64
2021/07/20 04:03:48;;;;;;;22.22;17.30;;;;;;;24.20;65.99;100347.72;1919353;74;21039;-64
2021/07/20 04:06:33;;;;;;;22.30;17.45;;;;;;;24.36;65.87;100352.34;1902105;74;21110;-64
2021/07/20 04:09:23;;;;;;;23.50;16.80;;;;;;;24.55;65.50;100352.66;1919020;74;21469;-65
2021/07/20 04:12:13;;;;;;;21.02;16.23;;;;;;;24.77;64.80;100353.95;1918808;74;21473;-64
2021/07/20 04:15:02;;;;;;;24.25;15.78;;;;;;;24.99;64.39;100352.52;1918477;74;21133;-64
2021/07/20 04:17:35;;;;;;;26.60;16.77;;;;;;;25.26;63.99;100347.89;1918822;74;21477;-65
2021/07/20 04:20:05;;;;;;;23.27;16.27;;;;;;;25.50;63.14;100353.00;1919340;75;21019;-65
2021/07/20 04:22:37;;;;;;;24.40;16.93;;;;;;;25.73;62.19;100359.91;1919406;74;21063;-65
2021/07/20 04:25:08;;;;;;;24.10;15.88;;;;;;;25.97;61.41;100359.13;1919131;75;21035;-64
2021/07/20 04:27:41;;;;;;;23.32;16.45;;;;;;;26.26;61.19;100361.77;1919242;74;21551;-64
2021/07/20 04:30:11;;;;;;;20.60;16.40;;;;;;;26.52;60.66;100361.53;1919207;75;21032;-65
2021/07/20 04:32:43;;;;;;;21.93;15.68;;;;;;;26.75;59.74;100357.62;1919247;74;21113;-64
2021/07/20 04:35:14;;;;;;;16.87;14.28;;;;;;;26.93;59.31;100356.87;1918773;74;21060;-64
2021/07/20 04:37:46;;;;;;;21.73;15.05;;;;;;;27.09;58.74;100354.58;1918388;74;21478;-64
2021/07/20 04:40:16;;;;;;;19.55;14.93;;;;;;;27.30;58.43;100357.22;1919123;74;21059;-64
2021/07/20 04:42:47;;;;;;;19.30;14.98;;;;;;;27.49;57.50;100354.55;1919015;74;21105;-64
2021/07/20 04:45:16;;;;;;;18.42;13.38;;;;;;;27.67;57.03;100358.31;1919293;75;21118;-64
2021/07/20 04:47:47;;;;;;;18.00;14.38;;;;;;;27.92;56.52;100356.25;1918593;74;21052;-64
2021/07/20 04:50:30;;;;;;;24.30;15.98;;;;;;;28.16;56.27;100357.89;1917874;74;21059;-64
2021/07/20 04:53:03;;;;;;;22.07;14.05;;;;;;;28.49;55.74;100350.78;1919031;74;21114;-64
2021/07/20 04:55:34;;;;;;;24.52;14.70;;;;;;;28.72;53.97;100357.50;1919243;75;21008;-64
2021/07/20 04:58:04;;;;;;;24.70;13.30;;;;;;;28.90;53.44;100351.66;1919207;75;21032;-64
2021/07/20 05:00:34;;;;;;;24.80;14.70;;;;;;;29.15;53.44;100358.99;1919276;75;21559;-64
2021/07/20 05:03:06;;;;;;;23.62;14.30;;;;;;;29.38;52.49;100355.27;1919145;74;21035;-64
2021/07/20 05:05:41;;;;;;;26.42;13.45;;;;;;;29.60;52.77;100356.98;1919188;75;21442;-65
2021/07/20 05:08:17;;;;;;;18.25;14.70;;;;;;;29.99;52.61;100362.47;1918748;74;21101;-64
2021/07/20 05:10:50;;;;;;;21.00;14.65;;;;;;;30.24;51.84;100360.66;1918632;74;21054;-65
2021/07/20 05:13:25;;;;;;;16.90;13.55;;;;;;;30.40;51.54;100361.73;1918952;74;21056;-64
2021/07/20 05:16:00;;;;;;;19.02;13.90;;;;;;;30.59;50.76;100358.81;1919110;74;21125;-64
2021/07/20 05:18:30;;;;;;;17.23;12.63;;;;;;;30.75;50.11;100361.73;1917756;74;21141;-64
2021/07/20 05:21:01;;;;;;;17.42;12.70;;;;;;;30.91;49.45;100355.64;1919308;75;21121;-64
2021/07/20 05:23:31;;;;;;;17.92;13.40;;;;;;;30.97;48.25;100354.86;1919279;75;21090;-64
2021/07/20 05:26:02;;;;;;;15.57;12.20;;;;;;;31.12;48.78;100358.25;1919284;74;21110;-64
2021/07/20 05:28:34;;;;;;;17.17;12.10;;;;;;;31.38;48.88;100358.00;1918995;75;21173;-65
2021/07/20 05:31:06;;;;;;;18.55;11.55;;;;;;;31.71;48.49;100358.61;1919466;75;21059;-64
2021/07/20 05:33:37;;;;;;;18.42;11.48;;;;;;;32.02;46.66;100353.05;1919345;75;21004;-64
2021/07/20 05:36:09;;;;;;;15.65;10.78;;;;;;;32.14;45.40;100352.76;1918551;74;21152;-64
2021/07/20 05:38:40;;;;;;;15.83;10.80;;;;;;;32.34;44.87;100346.45;1919481;75;21090;-64
2021/07/20 05:41:19;;;;;;;23.20;10.90;;;;;;;32.64;45.21;100353.09;1876512;75;21129;-64
2021/07/20 05:43:49;;;;;;;18.65;11.10;;;;;;;32.92;44.68;100351.11;1919224;74;21506;-65
2021/07/20 05:46:20;;;;;;;16.32;10.30;;;;;;;33.16;44.46;100353.64;1919276;75;21020;-64
2021/07/20 05:48:50;;;;;;;15.15;10.43;;;;;;;33.40;43.99;100351.52;1919189;74;21539;-64
2021/07/20 05:51:21;;;;;;;12.28;9.78;;;;;;;33.70;44.09;100353.66;1919269;73;21516;-64
2021/07/20 05:54:07;;;;;;;16.30;10.32;;;;;;;34.05;44.08;100350.42;1918270;74;21132;-65
2021/07/20 05:56:56;;;;;;;19.10;10.60;;;;;;;34.35;43.86;100353.83;1919243;75;21039;-64
2021/07/20 05:59:27;;;;;;;14.05;9.70;;;;;;;34.70;44.16;100350.53;1917530;74;21061;-64
2021/07/20 06:01:58;;;;;;;16.05;9.88;;;;;;;35.04;43.55;100358.59;1906590;75;21044;-65
2021/07/20 06:04:29;;;;;;;16.50;10.05;;;;;;;35.41;43.19;100349.48;1906632;75;21004;-65
2021/07/20 06:07:02;;;;;;;15.90;10.32;;;;;;;35.74;42.62;100351.73;1906501;75;21502;-64
2021/07/20 06:09:28;;;;;;;15.85;9.98;;;;;;;36.02;42.37;100345.55;1906267;74;21036;-64
2021/07/20 06:11:59;;;;;;;18.42;10.00;;;;;;;36.27;42.23;100350.01;1906555;75;21532;-64
2021/07/20 06:14:31;;;;;;;12.88;10.05;;;;;;;36.54;41.86;100347.59;1906547;75;21134;-65
2021/07/20 06:17:00;;;;;;;14.80;9.97;;;;;;;36.82;41.39;100348.75;1906798;75;21032;-65
2021/07/20 06:19:29;;;;;;;13.10;9.90;;;;;;;37.03;40.68;100349.97;1906527;75;21122;-64
2021/07/20 06:21:58;;;;;;;12.45;9.40;;;;;;;37.06;40.69;100350.31;1906658;75;21032;-64
2021/07/20 06:24:27;;;;;;;17.92;9.93;;;;;;;37.25;40.77;100344.66;1906528;74;21008;-64
2021/07/20 06:26:57;;;;;;;16.93;9.35;;;;;;;37.51;40.06;100348.68;1906477;75;21000;-65
2021/07/20 06:29:28;;;;;;;11.33;9.10;;;;;;;37.84;39.82;100347.06;1906501;75;21419;-65
2021/07/20 06:31:57;;;;;;;14.55;9.70;;;;;;;38.09;39.00;100347.19;1906620;74;21098;-65
2021/07/20 06:34:26;;;;;;;12.37;9.65;;;;;;;38.25;38.86;100350.45;1906634;74;21129;-64
2021/07/20 06:36:57;;;;;;;16.60;9.28;;;;;;;38.50;38.77;100346.41;1906575;75;21109;-64
2021/07/20 06:39:26;;;;;;;12.43;9.68;;;;;;;38.76;38.09;100348.95;1906717;75;21044;-65
2021/07/20 06:41:56;;;;;;;12.98;9.28;;;;;;;38.92;37.44;100345.30;1906495;75;21121;-65
2021/07/20 06:44:26;;;;;;;13.08;8.93;;;;;;;39.07;37.10;100348.80;1906626;75;21032;-64
2021/07/20 06:46:58;;;;;;;21.40;9.10;;;;;;;39.14;36.51;100345.81;1906587;75;21482;-64
2021/07/20 06:49:27;;;;;;;16.20;9.15;;;;;;;39.32;36.36;100344.63;1906669;74;21036;-64
2021/07/20 06:51:56;;;;;;;15.48;8.03;;;;;;;39.48;35.47;100338.20;1906412;75;21535;-65
2021/07/20 06:54:25;;;;;;;14.73;8.73;;;;;;;39.50;34.72;100341.52;1906497;75;21533;-65
2021/07/20 06:56:57;;;;;;;15.45;8.93;;;;;;;39.35;33.76;100333.09;1906496;75;21008;-64
2021/07/20 06:59:28;;;;;;;12.40;8.68;;;;;;;39.24;34.68;100336.84;1906089;74;21032;-64
2021/07/20 07:01:59;;;;;;;10.40;7.78;;;;;;;39.41;34.32;100337.55;1906763;75;21072;-64
2021/07/20 07:04:33;;;;;;;12.23;7.30;;;;;;;39.54;33.08;100332.19;1906435;75;21008;-66
2021/07/20 07:07:03;;;;;;;11.78;7.45;;;;;;;39.67;32.57;100329.53;1906497;75;21627;-63
2021/07/20 07:09:33;;;;;;;10.53;7.55;;;;;;;39.81;32.60;100327.99;1906511;75;21529;-64
2021/07/20 07:12:03;;;;;;;12.10;7.83;;;;;;;39.99;32.39;100325.92;1906482;75;21028;-64
2021/07/20 07:14:35;;;;;;;14.93;7.58;;;;;;;40.23;32.42;100320.83;1906592;75;21008;-64
2021/07/20 07:17:06;;;;;;;14.80;7.40;;;;;;;40.40;30.96;100331.72;1906623;75;21003;-65
2021/07/20 07:19:35;;;;;;;14.65;8.23;;;;;;;40.43;30.65;100324.27;1906680;75;21036;-64
2021/07/20 07:22:06;;;;;;;11.40;8.58;;;;;;;40.20;31.15;100318.63;1906445;75;21051;-64
2021/07/20 07:24:36;;;;;;;13.65;8.18;;;;;;;40.21;31.57;100319.74;1906580;75;21009;-64
2021/07/20 07:27:07;;;;;;;17.32;8.50;;;;;;;40.44;31.82;100319.87;1906710;75;21422;-64
2021/07/20 07:29:36;;;;;;;12.75;7.45;;;;;;;40.75;32.43;100319.17;1906501;75;21086;-64
2021/07/20 07:32:05;;;;;;;11.20;8.23;;;;;;;41.03;31.24;100317.32;1906488;75;21028;-64
2021/07/20 07:34:36;;;;;;;13.70;8.10;;;;;;;41.19;31.12;100317.33;1906687;75;21036;-64
2021/07/20 07:37:06;;;;;;;14.55;8.85;;;;;;;41.41;30.67;100313.81;1906743;74;21028;-64
2021/07/20 07:39:36;;;;;;;19.12;8.48;;;;;;;41.43;30.53;100310.22;1906558;74;21097;-64
2021/07/20 07:42:07;;;;;;;11.97;8.10;;;;;;;41.66;29.98;100312.16;1906395;74;21040;-65
2021/07/20 07:44:37;;;;;;;11.95;8.00;;;;;;;41.56;28.80;100308.83;1906603;75;21040;-64
2021/07/20 07:47:06;;;;;;;10.98;7.87;;;;;;;41.63;29.50;100312.68;1906433;74;21060;-64
2021/07/20 07:49:36;;;;;;;8.33;7.53;;;;;;;41.56;28.91;100306.62;1906478;75;21556;-64
2021/07/20 07:52:08;;;;;;;13.90;9.05;;;;;;;41.48;28.83;100299.17;1906596;75;21040;-64
2021/07/20 07:54:37;;;;;;;11.50;7.70;;;;;;;41.51;29.49;100306.62;1906828;75;21550;-65
2021/07/20 07:57:06;;;;;;;11.43;7.72;;;;;;;41.68;29.33;100303.59;1906480;75;21548;-64
2021/07/20 07:59:38;;;;;;;12.55;8.23;;;;;;;41.83;29.10;100300.80;1906476;75;21539;-64
2021/07/20 08:02:09;;;;;;;9.68;8.33;;;;;;;41.98;28.39;100308.23;1913065;75;21513;-64
2021/07/20 08:04:41;;;;;;;17.32;7.72;;;;;;;42.12;28.42;100305.19;1919416;74;21446;-64
2021/07/20 08:07:09;;;;;;;;;;;;;;;42.08;27.78;100308.25;1921888;73;21469;-64
2021/07/20 08:09:40;;;;;;;12.00;7.90;;;;;;;42.16;28.48;100303.52;1919158;75;20116;-64
2021/07/20 08:12:10;;;;;;;13.83;8.48;;;;;;;42.22;28.15;100307.94;1919307;75;21089;-64
2021/07/20 08:14:39;;;;;;;15.50;8.30;;;;;;;42.49;28.63;100305.36;1919159;74;21023;-64
2021/07/20 08:17:10;;;;;;;10.10;7.72;;;;;;;42.79;27.34;100307.69;1919064;75;21059;-64
2021/07/20 08:19:41;;;;;;;13.60;8.03;;;;;;;42.83;26.57;100301.87;1919436;75;21007;-65
2021/07/20 08:22:14;;;;;;;13.08;8.43;;;;;;;42.86;26.99;100297.13;1919401;75;21687;-64
2021/07/20 08:24:43;;;;;;;9.33;7.47;;;;;;;42.66;26.65;100306.94;1919394;74;21109;-64
2021/07/20 08:27:18;;;;;;;17.15;7.45;;;;;;;42.35;27.12;100298.20;1918412;74;21546;-64
2021/07/20 08:29:50;;;;;;;15.30;8.65;;;;;;;42.30;26.87;100296.84;1919072;74;21063;-64
2021/07/20 08:32:19;;;;;;;;;;;;;;;42.17;26.39;100294.68;1921999;74;21133;-64
2021/07/20 08:34:51;;;;;;;9.48;7.80;;;;;;;42.21;27.26;100295.20;1919131;75;20101;-64
2021/07/20 08:37:20;;;;;;;10.88;8.20;;;;;;;42.30;27.13;100295.45;1918403;74;21035;-64
2021/07/20 08:39:51;;;;;;;12.30;7.30;;;;;;;42.33;27.02;100292.66;1919153;75;21519;-64
2021/07/20 08:42:34;;;;;;;12.78;7.85;;;;;;;42.52;26.70;100290.97;1919476;75;21007;-65
2021/07/20 08:45:09;;;;;;;9.93;7.87;;;;;;;42.71;26.38;100294.47;1918181;74;21501;-64
2021/07/20 08:47:44;;;;;;;18.48;8.15;;;;;;;42.67;25.99;100290.62;1919106;75;21490;-64
2021/07/20 08:50:33;;;;;;;11.75;9.25;;;;;;;42.54;26.72;100292.07;1919241;75;21519;-64
2021/07/20 08:53:15;;;;;;;13.60;8.10;;;;;;;42.43;27.20;100285.72;1918959;75;21117;-64
2021/07/20 08:55:48;;;;;;;15.25;8.33;;;;;;;42.58;26.71;100282.08;1919216;75;21493;-64
2021/07/20 08:58:26;;;;;;;8.50;7.47;;;;;;;42.89;26.66;100282.75;1919184;75;21105;-65
2021/07/20 09:01:03;;;;;;;13.45;7.65;;;;;;;43.15;25.96;100277.84;1919063;75;21083;-65
2021/07/20 09:04:02;;;;;;;13.60;7.70;;;;;;;43.09;24.55;100287.86;1918873;75;21223;-64
2021/07/20 09:06:52;;;;;;;9.25;7.22;;;;;;;42.83;25.25;100285.27;1919334;75;21027;-64
2021/07/20 09:09:24;;;;;;;10.10;7.47;;;;;;;42.83;24.35;100288.03;1919003;74;21120;-64
2021/07/20 09:11:59;;;;;;;13.08;7.42;;;;;;;42.80;25.24;100284.44;1918955;74;21914;-65
2021/07/20 09:14:51;;;;;;;12.50;7.97;;;;;;;42.85;25.02;100278.03;1919243;75;21125;-64
2021/07/20 09:17:35;;;;;;;10.93;8.03;;;;;;;42.69;24.35;100285.05;1919130;75;21109;-64
2021/07/20 09:20:20;;;;;;;10.65;8.20;;;;;;;42.13;25.61;100280.59;1919102;75;21111;-65
2021/07/20 09:23:11;;;;;;;11.85;7.67;;;;;;;42.10;25.03;100281.70;1919123;75;21109;-64
2021/07/20 09:26:00;;;;;;;14.78;8.13;;;;;;;42.23;25.67;100276.95;1919156;74;21469;-64
2021/07/20 09:28:50;;;;;;;12.90;8.05;;;;;;;42.39;25.83;100279.11;1900353;73;21556;-64
2021/07/20 09:31:50;;;;;;;12.15;8.18;;;;;;;42.39;26.04;100283.25;1917695;74;21043;-64
2021/07/20 09:34:39;;;;;;;10.10;7.45;;;;;;;42.59;26.21;100277.65;1919075;74;21541;-64
2021/07/20 09:37:10;;;;;;;16.35;8.20;;;;;;;42.49;25.72;100280.45;1889303;74;21438;-64
2021/07/20 09:39:59;;;;;;;11.65;8.50;;;;;;;42.24;25.40;100276.67;1919204;75;21055;-64
2021/07/20 09:42:46;;;;;;;11.93;8.70;;;;;;;41.64;26.46;100272.92;1919198;75;21462;-64
2021/07/20 09:45:21;;;;;;;13.65;8.30;;;;;;;41.57;27.08;100266.83;1914911;75;21122;-63
2021/07/20 09:48:24;;;;;;;13.13;8.80;;;;;;;41.62;26.98;100264.88;1885375;76;21039;-63
2021/07/20 09:51:11;;;;;;;14.28;7.80;;;;;;;41.73;27.11;100264.34;1886149;76;21152;-63
2021/07/20 09:54:08;;;;;;;11.15;7.83;;;;;;;41.50;27.33;100259.37;1885506;76;21055;-63
2021/07/20 09:56:41;;;;;;;14.87;8.48;;;;;;;41.56;27.35;100255.52;1886146;76;21067;-63
2021/07/20 09:59:19;;;;;;;15.28;8.23;;;;;;;41.83;27.35;100253.28;1886129;76;21536;-63
2021/07/20 10:01:51;;;;;;;11.93;8.38;;;;;;;42.03;26.43;100250.16;1886045;76;21121;-63
2021/07/20 10:04:22;;;;;;;10.28;8.05;;;;;;;41.84;25.68;100241.09;1894724;75;21082;-63
2021/07/20 10:07:01;;;;;;;;;;;;;;;41.77;26.99;100249.41;1898007;75;21140;-63
2021/07/20 10:10:00;;;;;;;11.73;7.78;;;;;;;41.90;27.23;100250.20;1894026;75;20115;-63
2021/07/20 10:25:22;;;;;;;11.60;6.78;;;;;;;42.45;21.64;100241.98;1960291;72;27988;-62
2021/07/20 10:27:56;;;;;;;13.43;6.72;;;;;;;42.57;22.60;100237.52;1919687;74;21103;-62
2021/07/20 10:30:28;;;;;;;9.60;5.53;;;;;;;42.54;22.05;100238.92;1892180;74;21519;-62
2021/07/20 10:33:26;;;;;;;6.22;5.28;;;;;;;42.43;21.64;100233.97;1919485;75;21101;-63
2021/07/20 10:36:00;;;;;;;8.03;5.67;;;;;;;42.37;20.73;100235.66;1919091;74;21465;-63
2021/07/20 10:38:53;;;;;;;9.95;5.10;;;;;;;42.29;20.78;100232.93;1919589;74;21105;-63
2021/07/20 10:41:24;;;;;;;7.20;4.80;;;;;;;42.12;20.16;100229.14;1918144;74;21109;-63
2021/07/20 10:44:05;;;;;;;9.68;6.05;;;;;;;42.03;20.07;100225.27;1919783;75;21121;-63
2021/07/20 10:46:35;;;;;;;9.48;6.90;;;;;;;42.01;21.10;100224.73;1919164;74;21036;-62
2021/07/20 10:49:10;;;;;;;11.50;7.65;;;;;;;42.06;23.12;100224.75;1919818;75;21015;-63
2021/07/20 10:51:41;;;;;;;10.63;7.42;;;;;;;42.12;23.55;100229.14;1884020;74;21473;-63
2021/07/20 10:54:31;;;;;;;12.78;7.28;;;;;;;42.11;23.83;100226.13;1919591;75;21073;-62
2021/07/20 10:57:00;;;;;;;7.55;6.75;;;;;;;41.94;23.28;100226.97;1919438;74;21007;-62
2021/07/20 10:59:35;;;;;;;11.75;7.12;;;;;;;41.72;23.08;100229.51;1919433;75;21063;-63
2021/07/20 11:02:12;;;;;;;11.50;7.35;;;;;;;41.62;23.19;100229.52;1919691;75;21446;-62
2021/07/20 11:05:01;;;;;;;12.23;8.08;;;;;;;41.53;23.64;100221.52;1918838;74;21078;-62
2021/07/20 11:07:42;;;;;;;9.48;7.60;;;;;;;41.32;24.45;100217.41;1919601;75;21148;-63
2021/07/20 11:10:14;;;;;;;13.25;7.15;;;;;;;40.97;24.35;100209.91;1919621;74;21120;-63
2021/07/20 11:12:46;;;;;;;13.05;7.30;;;;;;;40.59;24.57;100211.50;1918280;74;21011;-62
2021/07/20 11:15:16;;;;;;;14.85;8.00;;;;;;;40.39;25.04;100214.20;1919581;75;21016;-63
2021/07/20 11:17:47;;;;;;;10.23;7.10;;;;;;;40.35;25.70;100211.72;1919646;75;21028;-63
2021/07/20 11:20:18;;;;;;;13.13;6.60;;;;;;;40.35;25.28;100211.72;1919759;74;21085;-63
2021/07/20 11:22:49;;;;;;;11.22;7.20;;;;;;;40.29;24.93;100210.28;1919696;75;21555;-63
2021/07/20 11:25:18;;;;;;;11.85;6.85;;;;;;;40.21;24.81;100205.30;1931982;74;21128;-63
2021/07/20 11:27:49;;;;;;;13.38;7.70;;;;;;;40.13;24.92;100205.25;1859797;77;21098;-63
2021/07/20 11:30:20;;;;;;;12.70;6.60;;;;;;;40.19;26.00;100199.20;1873038;77;21083;-63
2021/07/20 11:33:08;;;;;;;14.80;7.77;;;;;;;40.19;25.54;100207.48;1872877;76;21059;-63
2021/07/20 11:35:39;;;;;;;12.55;7.53;;;;;;;40.14;25.30;100200.59;1872857;77;21036;-62
2021/07/20 11:38:11;;;;;;;10.05;6.55;;;;;;;40.03;25.59;100201.65;1872931;76;21454;-62
2021/07/20 11:40:42;;;;;;;12.63;6.87;;;;;;;40.02;25.58;100202.73;1871640;76;21048;-62
2021/07/20 11:43:14;;;;;;;13.22;7.05;;;;;;;40.06;26.12;100196.95;1877725;76;21077;-64
2021/07/20 11:46:07;;;;;;;20.15;7.83;;;;;;;40.06;25.61;100196.43;1878266;76;21047;-63
2021/07/20 11:48:57;;;;;;;13.48;7.03;;;;;;;40.04;26.31;100196.40;1878466;76;21059;-62
2021/07/20 11:51:53;;;;;;;13.30;6.83;;;;;;;40.02;26.94;100188.95;1878924;76;21473;-63
2021/07/20 11:54:47;;;;;;;10.18;6.80;;;;;;;40.04;27.25;100192.27;1879456;76;21118;-63
2021/07/20 11:57:47;;;;;;;8.75;6.53;;;;;;;40.02;26.97;100187.02;1879405;76;21047;-63
2021/07/20 12:00:31;;;;;;;12.90;7.10;;;;;;;39.84;26.45;100181.41;1879362;76;21044;-63
2021/07/20 12:03:14;;;;;;;12.93;7.70;;;;;;;39.63;28.16;100179.08;1879486;76;21188;-62